• Join FlightAware (Why Join?)
  • Login
  • US Flag 
08:56AM EST


 

Airport Tracker/Info


-or-


 

Live Flight TrackerFlight Track Log ✈ UAL1519 ✈ 13-Apr-2013 ✈ KEWR - TIST / STT

Flight Track Log - Related Links

Times and Time Zones

All times are in EDT time to prevent confusion due to time zone crossing. See the UAL1519 flight status page for this flight to view local times or setup timezone preferences in your user account.

Time Position Orientation Groundspeed Altitude Reporting Facility
EDT Latitude Longitude Course Direction KTS MPH feet Rate Location/Type
10:00AM 40.7333 -74.1167 217° Southwest 199 229 2,500  Level New York TRACON
10:01AM 40.7833 -74.1333 346° North 215 247 5,800 2,520 Climbing New York TRACON
10:02AM 40.3373 -74.1669 161° South  Level FlightAware Approximate
10:02AM 40.7333 -74.1833 217° Southwest 252 290 7,600  Level New York TRACON
10:03AM 40.2143 -74.1786 194° South  Level FlightAware Approximate
10:03AM 40.6667 -74.2167 201° Southwest 265 305 10,700  Level New York TRACON
10:04AM 40.1012 -74.2167 180° South  Level FlightAware Approximate
10:04AM 40.6000 -74.2500 201° Southwest 281 323 13,000  Level New York TRACON
10:05AM 39.9856 -74.2644 217° Southwest  Level FlightAware Approximate
10:05AM 40.5000 -74.2500 180° South 341 392 15,800  Level New York TRACON
10:07AM 40.3428 -74.2103 169° South 334 384 17,000 420 Climbing New York Center
10:08AM 40.2611 -74.2225 187° South 329 379 17,100 1,200 Climbing New York Center
10:10AM 40.0289 -74.2475 185° South 341 392 21,200 1,680 Climbing Washington Center
10:11AM 39.9442 -74.3086 209° Southwest 341 392 23,000 2,100 Climbing Washington Center
10:12AM 39.8658 -74.3858 217° Southwest 346 398 25,400 2,340 Climbing Washington Center
10:13AM 39.7917 -74.4656 220° Southwest 356 410 27,700 2,040 Climbing Washington Center
10:14AM 39.7175 -74.5639 226° Southwest 356 410 29,500 1,140 Climbing Washington Center
10:15AM 39.6494 -74.6564 226° Southwest 351 404 30,000 180 Climbing Washington Center
10:16AM 39.5772 -74.7489 225° Southwest 356 410 29,900  Descending Washington Center
10:17AM 39.5092 -74.8411 226° Southwest 356 410 30,000  Climbing Washington Center
10:18AM 39.4219 -74.9064 210° Southwest 356 410 30,000  Level Washington Center
10:19AM 39.3283 -74.9583 203° Southwest 361 415 30,000  Level Washington Center
10:20AM 39.2328 -75.0100 203° Southwest 367 422 30,000  Level Washington Center
10:21AM 39.1350 -75.0672 204° Southwest 374 430 30,000 -60 Level Washington Center
10:22AM 39.0394 -75.1214 204° Southwest 381 438 29,900  Descending Washington Center
10:23AM 38.9417 -75.1753 203° Southwest 381 438 30,000  Climbing Washington Center
10:24AM 38.8439 -75.2317 204° Southwest 381 438 30,000  Level Washington Center
10:25AM 38.7419 -75.2828 201° Southwest 386 444 30,000  Level Washington Center
10:26AM 38.6442 -75.3417 205° Southwest 386 444 30,000  Level Washington Center
10:27AM 38.5442 -75.3925 202° Southwest 391 450 30,000 -60 Level Washington Center
10:28AM 38.4442 -75.4458 203° Southwest 391 450 29,900 -60 Descending Washington Center
10:29AM 38.3461 -75.5017 204° Southwest 397 457 29,900  Level Washington Center
10:30AM 38.2564 -75.5494 203° Southwest 397 457 30,000  Climbing Washington Center
10:31AM 38.1564 -75.6022 203° Southwest 392 451 30,000  Level Washington Center
10:32AM 38.0564 -75.6578 204° Southwest 397 457 30,000 -60 Level Washington Center
10:33AM 37.9519 -75.7208 205° Southwest 392 451 29,900 -60 Descending Washington Center
10:34AM 37.8497 -75.7733 202° Southwest 387 445 29,900  Level Washington Center
10:35AM 37.7536 -75.8256 203° Southwest 387 445 30,000  Climbing Washington Center
10:36AM 37.6556 -75.8778 203° Southwest 387 445 29,900  Descending Washington Center
10:37AM 37.5575 -75.9297 203° Southwest 387 445 30,000  Climbing Washington Center
10:38AM 37.4614 -75.9817 203° Southwest 387 445 30,000 -60 Level Washington Center
10:39AM 37.3611 -76.0333 202° Southwest 387 445 29,900 -60 Descending Washington Center
10:40AM 37.2608 -76.0878 203° Southwest 387 445 29,900  Level Washington Center
10:41AM 37.1625 -76.1392 203° Southwest 387 445 30,000  Climbing Washington Center
10:42AM 37.0683 -76.1853 201° Southwest 394 453 30,000  Level Washington Center
10:43AM 36.9658 -76.2392 203° Southwest 399 459 30,000  Level Washington Center
10:44AM 36.8633 -76.2903 202° Southwest 399 459 30,000  Level Washington Center
10:45AM 36.7628 -76.3439 203° Southwest 399 459 30,000  Level Washington Center
10:46AM 36.6519 -76.4047 204° Southwest 399 459 30,000  Level Washington Center
10:47AM 36.5514 -76.4581 203° Southwest 399 459 30,000  Level Washington Center
10:48AM 36.4489 -76.5086 202° Southwest 399 459 30,000  Level Washington Center
10:49AM 36.3483 -76.5592 202° Southwest 399 459 30,000  Level Washington Center
10:50AM 36.2456 -76.6119 202° Southwest 399 459 30,000  Level Washington Center
10:51AM 36.1428 -76.6619 201° Southwest 399 459 30,000  Level Washington Center
10:52AM 36.0444 -76.7147 203° Southwest 399 459 30,000  Level Washington Center
10:53AM 35.9394 -76.7669 202° Southwest 399 459 30,000  Level Washington Center
10:54AM 35.8369 -76.8167 201° Southwest 399 459 30,000  Level Washington Center
10:55AM 35.7361 -76.8689 203° Southwest 399 459 30,000  Level Washington Center
10:56AM 35.6311 -76.9261 204° Southwest 399 459 30,000  Level Washington Center
10:57AM 35.5431 -76.9681 201° Southwest 394 453 30,000  Level Washington Center
10:58AM 35.4381 -77.0222 203° Southwest 400 460 30,000  Level Washington Center
10:59AM 35.3353 -77.0714 201° Southwest 400 460 30,000  Level Washington Center
11:00AM 35.2344 -77.1253 204° Southwest 400 460 30,000  Level Washington Center
11:01AM 35.1317 -77.1742 201° Southwest 400 460 30,000  Level Washington Center
11:02AM 35.0286 -77.2256 202° Southwest 400 460 30,000  Level Washington Center
11:03AM 34.9214 -77.2792 202° Southwest 400 460 30,000 -60 Level Washington Center
11:04AM 34.8122 -77.3350 203° Southwest 400 460 29,900  Descending Washington Center
11:05AM 34.7072 -77.3858 202° Southwest 400 460 30,000  Climbing Washington Center
11:06AM 34.6019 -77.4392 203° Southwest 400 460 30,000 -60 Level Washington Center
11:07AM 34.4889 -77.4667 191° South 405 466 29,900  Descending Washington Center
11:08AM 34.3883 -77.4869 189° South 410 472 30,000  Climbing Washington Center
11:12AM 33.9803 -77.5561 188° South 432 497 30,000  Level Jacksonville Center
11:13AM 33.8642 -77.5756 188° South 427 491 30,000  Level Jacksonville Center
11:14AM 33.7483 -77.5975 189° South 415 478 30,000  Level Jacksonville Center
11:15AM 33.6197 -77.6178 187° South 415 478 30,000  Level Jacksonville Center
11:16AM 33.5039 -77.6397 189° South 415 478 30,000  Level Jacksonville Center
11:17AM 33.3869 -77.6392 180° South 420 483 30,000 -60 Level Jacksonville Center
11:18AM 33.2833 -77.6081 166° South 420 483 29,900 -60 Descending Jacksonville Center
11:19AM 33.1544 -77.5661 165° South 436 502 29,900 480 Level Jacksonville Center
11:20AM 33.0358 -77.5283 165° South 436 502 30,900 540 Climbing Jacksonville Center
11:21AM 32.9383 -77.4922 163° South 436 502 31,000  Climbing Jacksonville Center
11:22AM 32.8264 -77.4619 167° South 425 489 30,900 -60 Descending Jacksonville Center
11:23AM 32.6994 -77.4178 164° South 420 483 30,900  Level Jacksonville Center
11:24AM 32.6019 -77.3867 165° South 420 483 30,900  Level Jacksonville Center
11:25AM 32.4919 -77.3514 165° South 420 483 31,000  Climbing Jacksonville Center
11:26AM 32.3775 -77.3142 165° South 420 483 31,000 780 Level Jacksonville Center
11:27AM 32.2656 -77.2817 166° South 420 483 32,600 960 Climbing Jacksonville Center
11:28AM 32.1514 -77.2469 166° South 420 483 33,000 180 Climbing Jacksonville Center
11:29AM 32.0411 -77.2072 163° South 420 483 33,000 -60 Level Jacksonville Center
11:30AM 31.9289 -77.1725 165° South 420 483 32,900  Descending Jacksonville Center
11:31AM 31.8147 -77.1406 167° South 420 483 33,000  Climbing Jacksonville Center
11:32AM 31.7019 -77.0961 161° South 420 483 33,000  Level Jacksonville Center
11:33AM 31.6061 -77.0094 142° Southeast 430 495 33,000 -60 Level Jacksonville Center
11:34AM 31.5064 -76.9306 146° Southeast 430 495 32,900  Descending Jacksonville Center
11:36AM 31.3001 -76.9520 141° Southeast  Level FlightAware Approximate
11:37AM 31.3500 -77.0000 140° Southeast 448 516 33,000  Level New York Oceanic (ODAPS)
11:43AM 30.5810 -76.2622 141° Southeast 448 516 33,000  Level FlightAware Transoceanic
11:44AM 30.4845 -76.1708 141° Southeast 448 516 33,000  Level FlightAware Transoceanic
11:45AM 30.3881 -76.0796 141° Southeast 448 516 33,000  Level FlightAware Transoceanic
11:46AM 30.2915 -75.9885 141° Southeast 448 516 33,000  Level FlightAware Transoceanic
11:47AM 30.1949 -75.8977 141° Southeast 448 516 33,000  Level FlightAware Transoceanic
11:48AM 30.0982 -75.8070 141° Southeast 448 516 33,000  Level FlightAware Transoceanic
11:49AM 30.0015 -75.7165 141° Southeast 448 516 33,000  Level FlightAware Transoceanic
11:50AM 29.9047 -75.6261 141° Southeast 448 516 33,000  Level FlightAware Transoceanic
11:51AM 29.8078 -75.5360 141° Southeast 448 516 33,000  Level FlightAware Transoceanic
11:52AM 29.7109 -75.4460 141° Southeast 448 516 33,000  Level FlightAware Transoceanic
11:53AM 29.6139 -75.3562 141° Southeast 448 516 33,000  Level FlightAware Transoceanic
11:54AM 29.5169 -75.2666 141° Southeast 448 516 33,000  Level FlightAware Transoceanic
11:55AM 29.4198 -75.1771 141° Southeast 448 516 33,000  Level FlightAware Transoceanic
11:56AM 29.3226 -75.0878 141° Southeast 448 516 33,000  Level FlightAware Transoceanic
11:57AM 29.2254 -74.9987 141° Southeast 448 516 33,000  Level FlightAware Transoceanic
11:58AM 29.1281 -74.9098 141° Southeast 448 516 33,000  Level FlightAware Transoceanic
11:59AM 29.0308 -74.8210 141° Southeast 448 516 33,000  Level FlightAware Transoceanic
12:00PM 28.9334 -74.7324 142° Southeast 448 516 33,000  Level FlightAware Transoceanic
12:01PM 28.8359 -74.6439 142° Southeast 448 516 33,000  Level FlightAware Transoceanic
12:02PM 28.7384 -74.5556 142° Southeast 448 516 33,000  Level FlightAware Transoceanic
12:03PM 28.6408 -74.4675 142° Southeast 448 516 33,000  Level FlightAware Transoceanic
12:04PM 28.5432 -74.3795 142° Southeast 448 516 33,000  Level FlightAware Transoceanic
12:05PM 28.4455 -74.2918 142° Southeast 448 516 33,000  Level FlightAware Transoceanic
12:06PM 28.3478 -74.2041 142° Southeast 448 516 33,000  Level FlightAware Transoceanic
12:07PM 28.2500 -74.1167 149° Southeast 448 516 33,000  Level FlightAware Transoceanic
12:07PM 28.2500 -74.1167 149° Southeast 450 518 33,000  Level New York Oceanic (ODAPS)
12:08PM 28.1385 -74.0416 149° Southeast 448 516 33,000  Level FlightAware Transoceanic
12:09PM 28.0269 -73.9667 149° Southeast 448 516 33,000  Level FlightAware Transoceanic
12:10PM 27.9153 -73.8920 149° Southeast 448 516 33,000  Level FlightAware Transoceanic
12:11PM 27.8036 -73.8174 149° Southeast 448 516 33,000  Level FlightAware Transoceanic
12:12PM 27.6919 -73.7430 149° Southeast 448 516 33,000  Level FlightAware Transoceanic
12:13PM 27.4945 -73.6118 150° Southeast 450 518 33,000  Level FlightAware Transoceanic
12:14PM 27.3864 -73.5403 150° Southeast 450 518 33,000  Level FlightAware Transoceanic
12:15PM 27.2783 -73.4689 150° Southeast 450 518 33,000  Level FlightAware Transoceanic
12:16PM 27.1702 -73.3976 150° Southeast 450 518 33,000  Level FlightAware Transoceanic
12:17PM 27.0620 -73.3265 150° Southeast 450 518 33,000  Level FlightAware Transoceanic
12:18PM 26.9538 -73.2555 150° Southeast 450 518 33,000  Level FlightAware Transoceanic
12:19PM 26.8455 -73.1846 150° Southeast 450 518 33,000  Level FlightAware Transoceanic
12:20PM 26.7372 -73.1139 150° Southeast 450 518 33,000  Level FlightAware Transoceanic
12:21PM 26.6289 -73.0433 150° Southeast 450 518 33,000  Level FlightAware Transoceanic
12:22PM 26.5206 -72.9728 150° Southeast 450 518 33,000  Level FlightAware Transoceanic
12:23PM 26.4122 -72.9025 150° Southeast 450 518 33,000  Level FlightAware Transoceanic
12:24PM 26.3037 -72.8323 150° Southeast 450 518 33,000  Level FlightAware Transoceanic
12:25PM 26.1953 -72.7623 150° Southeast 450 518 33,000  Level FlightAware Transoceanic
12:26PM 26.0868 -72.6923 150° Southeast 450 518 33,000  Level FlightAware Transoceanic
12:27PM 25.9783 -72.6225 150° Southeast 450 518 33,000  Level FlightAware Transoceanic
12:28PM 25.8697 -72.5528 150° Southeast 450 518 33,000  Level FlightAware Transoceanic
12:29PM 25.7611 -72.4833 150° Southeast 450 518 33,000  Level FlightAware Transoceanic
12:29PM 25.8000 -72.5086 150° Southeast 445 512 33,000  Level Miami Center
12:30PM 25.6525 -72.4139 150° Southeast 450 518 33,000  Level FlightAware Transoceanic
12:30PM 25.6831 -72.4344 150° Southeast 464 534 33,000  Level Miami Center
12:31PM 25.5438 -72.3446 150° Southeast 450 518 33,000  Level FlightAware Transoceanic
12:31PM 25.5678 -72.3581 149° Southeast 470 541 33,000  Level Miami Center
12:32PM 25.4351 -72.2754 150° Southeast 450 518 33,000  Level FlightAware Transoceanic
12:32PM 25.4528 -72.2842 150° Southeast 482 555 33,000  Level Miami Center
12:33PM 25.3264 -72.2064 150° Southeast 450 518 33,000  Level FlightAware Transoceanic
12:33PM 25.3397 -72.2128 150° Southeast 475 547 33,000  Level Miami Center
12:34PM 25.2176 -72.1375 150° Southeast 450 518 33,000  Level FlightAware Transoceanic
12:34PM 25.2247 -72.1414 151° Southeast 475 547 33,000  Level Miami Center
12:35PM 25.1097 -72.0678 150° Southeast 481 554 33,000  Level Miami Center
12:36PM 24.9969 -72.0036 153° Southeast 475 547 33,000  Level Miami Center
12:37PM 24.8767 -71.9694 166° South 444 511 33,000  Level Miami Center
12:38PM 24.7717 -71.8867 144° Southeast 455 524 33,000  Level Miami Center
12:39PM 24.6781 -71.7739 132° Southeast 471 542 33,000  Level Miami Center
12:40PM 24.5789 -71.6819 140° Southeast 471 542 33,000  Level Miami Center
12:41PM 24.4792 -71.5836 138° Southeast 477 549 33,000  Level Miami Center
12:42PM 24.3797 -71.4853 138° Southeast 477 549 33,000  Level Miami Center
12:43PM 24.2803 -71.3917 139° Southeast 482 555 33,000  Level Miami Center
12:44PM 24.1783 -71.2892 137° Southeast 475 547 33,000  Level Miami Center
12:45PM 24.0808 -71.1978 139° Southeast 470 541 33,000  Level Miami Center
12:46PM 23.9808 -71.0933 136° Southeast 480 552 33,000  Level Miami Center
12:47PM 23.8792 -70.9981 139° Southeast 485 558 33,000  Level Miami Center
12:48PM 23.7769 -70.8986 138° Southeast 485 558 33,000  Level Miami Center
12:49PM 23.6772 -70.8036 139° Southeast 478 550 33,000  Level Miami Center
12:50PM 23.5747 -70.6975 136° Southeast 478 550 33,000  Level Miami Center
12:51PM 23.4947 -70.6289 142° Southeast 483 556 33,000  Level Miami Center
12:52PM 23.3858 -70.5192 137° Southeast 478 550 33,000  Level Miami Center
12:53PM 23.2858 -70.4247 139° Southeast 478 550 33,000  Level Miami Center
12:54PM 23.1858 -70.3328 140° Southeast 470 541 33,000  Level Miami Center
12:55PM 23.0856 -70.2364 139° Southeast 477 549 33,000  Level Miami Center
12:56PM 22.9872 -70.1378 137° Southeast 477 549 33,000  Level Miami Center
12:57PM 22.8828 -70.0375 138° Southeast 477 549 33,000  Level Miami Center
12:58PM 22.7869 -69.9503 140° Southeast 479 551 33,000  Level Miami Center
12:59PM 22.6803 -69.8503 139° Southeast 480 552 33,000  Level Miami Center
01:00PM 22.5842 -69.7567 138° Southeast 475 547 33,000  Level Miami Center
01:01PM 22.4836 -69.6633 139° Southeast 475 547 33,000  Level Miami Center
01:02PM 22.3811 -69.5658 139° Southeast 475 547 33,000  Level Miami Center
01:03PM 22.2783 -69.4708 139° Southeast 475 547 33,000  Level Miami Center
01:04PM 22.1758 -69.3758 139° Southeast 481 554 33,000  Level Miami Center
01:05PM 22.0711 -69.2789 139° Southeast 481 554 33,000  Level Miami Center
01:06PM 21.9661 -69.1822 140° Southeast 486 559 33,000  Level Miami Center
01:07PM 21.8633 -69.0853 139° Southeast 492 566 33,000  Level Miami Center
01:08PM 21.7603 -68.9889 139° Southeast 492 566 33,000  Level Miami Center
01:09PM 21.6533 -68.8950 141° Southeast 492 566 33,000  Level Miami Center
01:10PM 21.5483 -68.7964 139° Southeast 503 579 33,000  Level Miami Center
01:11PM 21.4472 -68.7003 138° Southeast 498 573 33,000  Level Miami Center
01:12PM 21.3403 -68.6067 141° Southeast 498 573 33,000  Level Miami Center
01:13PM 21.2414 -68.5106 138° Southeast 498 573 33,000  Level Miami Center
01:14PM 21.1322 -68.4175 142° Southeast 499 574 33,000  Level Miami Center
01:15PM 21.0408 -68.3100 132° Southeast 499 574 33,000  Level Miami Center
01:16PM 20.9494 -68.1983 131° Southeast 494 568 33,000  Level Miami Center
01:17PM 20.8575 -68.0847 131° Southeast 500 575 33,000  Level Miami Center
01:18PM 20.7681 -67.9731 131° Southeast 500 575 33,000  Level Miami Center
01:19PM 20.6825 -67.8614 129° Southeast 505 581 33,000  Level Miami Center
01:20PM 20.5925 -67.7481 130° Southeast 505 581 33,000  Level Miami Center
01:21PM 20.4919 -67.6289 132° Southeast 505 581 33,000  Level Miami Center
01:22PM 20.4333 -67.5167 119° Southeast 490 564 33,000  Level San Juan Center
01:23PM 20.3333 -67.4167 137° Southeast 500 575 33,000  Level San Juan Center
01:24PM 20.2500 -67.3000 127° Southeast 500 575 33,000  Level San Juan Center
01:25PM 20.1500 -67.1833 132° Southeast 490 564 33,000  Level San Juan Center
01:26PM 20.0667 -67.0667 127° Southeast 490 564 33,000  Level San Juan Center
01:27PM 19.9833 -66.9667 132° Southeast 490 564 33,000  Level San Juan Center
01:28PM 19.8833 -66.8500 132° Southeast 490 564 33,000 -60 Level San Juan Center
01:29PM 19.8000 -66.7500 132° Southeast 490 564 32,900  Descending San Juan Center
01:30PM 19.7167 -66.6333 127° Southeast 480 552 33,000  Climbing San Juan Center
01:31PM 19.6167 -66.5167 132° Southeast 490 564 33,000 -420 Level San Juan Center
01:32PM 19.5333 -66.4167 131° Southeast 490 564 32,200 -1,740 Descending San Juan Center
01:33PM 19.4500 -66.3000 127° Southeast 480 552 29,500 -2,640 Descending San Juan Center
01:34PM 19.3500 -66.2000 137° Southeast 480 552 27,000 -2,520 Descending San Juan Center
01:35PM 19.2667 -66.1000 131° Southeast 470 541 24,500 -2,460 Descending San Juan Center
01:36PM 19.1833 -65.9833 127° Southeast 450 518 22,100 -2,340 Descending San Juan Center
01:37PM 19.1000 -65.8833 131° Southeast 430 495 19,900 -2,220 Descending San Juan Center
01:38PM 19.0167 -65.7833 131° Southeast 410 472 17,700 -2,280 Descending San Juan Center
01:39PM 18.9500 -65.7000 130° Southeast 390 449 15,400 -1,980 Descending San Juan Center
01:40PM 18.8833 -65.6167 130° Southeast 370 426 13,800 -1,380 Descending San Juan Center
01:41PM 18.8167 -65.5333 130° Southeast 340 391 12,700 -1,260 Descending San Juan Center
01:42PM 18.7500 -65.4667 137° Southeast 330 380 11,300 -1,260 Descending San Juan Center
01:43PM 18.7000 -65.4000 128° Southeast 310 357 10,200 -1,020 Descending San Juan Center
01:44PM 18.6500 -65.3500 137° Southeast 280 322 9,300 -1,200 Descending San Juan Center
01:45PM 18.5833 -65.3000 145° Southeast 260 299 7,800 -1,560 Descending San Juan Center
01:46PM 18.5167 -65.2667 155° Southeast 260 299 6,200 -1,500 Descending San Juan Center
01:47PM 18.4500 -65.2333 155° Southeast 260 299 4,900 -1,020 Descending San Juan Center
01:48PM 18.3833 -65.2000 155° Southeast 230 265 4,200 -1,140 Descending San Juan Center
01:49PM 18.3500 -65.1667 136° Southeast 210 242 2,700 -840 Descending San Juan Center
01:50PM 18.3167 -65.1167 125° Southeast 180 207 2,600 -120 Descending San Juan Center